createdAt,value
2023-02-08T00:00:39.067Z,57.17
2023-02-08T00:03:06.181Z,56.57
2023-02-08T00:05:33.084Z,56.78
2023-02-08T00:07:59.840Z,56.19
2023-02-08T00:10:26.780Z,57.67
2023-02-08T00:12:53.574Z,57.38
2023-02-08T00:15:20.392Z,57.08
2023-02-08T00:17:47.343Z,57.64
2023-02-08T00:20:14.321Z,58.57
2023-02-08T00:22:41.267Z,57.73
2023-02-08T00:25:08.634Z,57.86
2023-02-08T00:27:36.031Z,57.75
2023-02-08T00:30:03.042Z,57.32
2023-02-08T00:32:30.402Z,57.92
2023-02-08T00:34:57.134Z,57.76
2023-02-08T00:37:23.868Z,58.02
2023-02-08T00:39:50.697Z,57.97
2023-02-08T00:42:17.641Z,56.33
2023-02-08T00:44:45.611Z,55.57
2023-02-08T00:47:12.427Z,55.20
2023-02-08T00:49:39.278Z,55.31
2023-02-08T00:52:06.088Z,55.80
2023-02-08T00:54:32.952Z,55.56
2023-02-08T00:56:59.743Z,55.59
2023-02-08T00:59:27.870Z,55.17
2023-02-08T01:01:54.842Z,54.94
2023-02-08T01:04:22.630Z,54.48
2023-02-08T01:06:49.425Z,55.46
2023-02-08T01:09:16.321Z,54.36
2023-02-08T01:11:43.304Z,53.86
2023-02-08T01:14:10.461Z,54.42
2023-02-08T01:16:37.461Z,54.35
2023-02-08T01:19:04.800Z,54.06
2023-02-08T01:21:36.479Z,54.23
2023-02-08T01:24:03.366Z,55.60
2023-02-08T01:26:30.741Z,55.25
2023-02-08T01:28:57.636Z,56.21
2023-02-08T01:31:26.116Z,55.92
2023-02-08T01:33:53.017Z,56.14
2023-02-08T01:36:19.951Z,57.86
2023-02-08T01:38:47.204Z,58.21
2023-02-08T01:41:15.551Z,57.74
2023-02-08T01:44:00.737Z,56.74
2023-02-08T01:46:27.738Z,58.65
2023-02-08T01:48:56.613Z,57.74
2023-02-08T01:51:29.914Z,56.99
2023-02-08T01:53:57.685Z,57.57
2023-02-08T01:56:29.811Z,58.24
2023-02-08T01:58:59.220Z,57.70
2023-02-08T02:01:27.716Z,57.81
2023-02-08T02:03:54.840Z,58.19
2023-02-08T02:06:23.432Z,57.43
2023-02-08T02:08:58.005Z,58.18
2023-02-08T02:11:24.804Z,58.58
2023-02-08T02:13:54.191Z,58.06
2023-02-08T02:16:21.092Z,58.76
2023-02-08T02:18:47.915Z,58.40
2023-02-08T02:21:25.375Z,57.48
2023-02-08T02:23:54.947Z,58.13
2023-02-08T02:26:23.033Z,58.44
2023-02-08T02:28:53.084Z,57.56
2023-02-08T02:31:40.982Z,57.56
2023-02-08T02:34:07.862Z,57.09
2023-02-08T02:36:53.369Z,55.67
2023-02-08T02:39:20.216Z,54.80
2023-02-08T02:42:11.759Z,56.32
2023-02-08T02:44:47.755Z,56.60
2023-02-08T02:47:23.715Z,56.98
2023-02-08T02:49:53.830Z,56.79
2023-02-08T02:52:23.674Z,56.05
2023-02-08T02:54:52.461Z,55.03
2023-02-08T02:57:21.823Z,54.89
2023-02-08T02:59:48.939Z,55.20
2023-02-08T03:02:15.987Z,54.13
2023-02-08T03:04:42.743Z,52.99
2023-02-08T03:07:21.618Z,54.09
2023-02-08T03:10:00.725Z,54.66
2023-02-08T03:12:40.273Z,55.30
2023-02-08T03:15:25.740Z,55.21
2023-02-08T03:18:12.797Z,54.18
2023-02-08T03:20:44.557Z,53.82
2023-02-08T03:23:11.344Z,54.29
2023-02-08T03:25:38.155Z,53.86
2023-02-08T03:28:24.056Z,54.60
2023-02-08T03:31:13.239Z,54.48
2023-02-08T03:33:53.329Z,53.61
2023-02-08T03:36:29.447Z,54.73
2023-02-08T03:38:56.437Z,55.50
2023-02-08T03:41:26.720Z,55.13
2023-02-08T03:44:31.951Z,55.76
2023-02-08T03:47:07.297Z,56.51
2023-02-08T03:49:35.637Z,56.09
2023-02-08T03:52:04.440Z,56.66
2023-02-08T03:54:33.820Z,56.65
2023-02-08T03:57:22.937Z,57.16
2023-02-08T03:59:54.291Z,57.35
2023-02-08T04:02:22.226Z,57.32
2023-02-08T04:04:50.318Z,57.73
2023-02-08T04:07:18.006Z,58.01
2023-02-08T04:09:45.252Z,58.18
2023-02-08T04:12:12.183Z,58.65
2023-02-08T04:14:39.084Z,58.76
2023-02-08T04:17:05.915Z,60.02
2023-02-08T04:19:32.923Z,59.67
2023-02-08T04:21:59.772Z,59.47
2023-02-08T04:24:26.552Z,59.00
2023-02-08T04:26:53.307Z,58.87
2023-02-08T04:29:20.072Z,59.88
2023-02-08T04:31:47.171Z,60.66
2023-02-08T04:34:13.948Z,60.59
2023-02-08T04:36:40.868Z,60.38
2023-02-08T04:39:07.666Z,61.10
2023-02-08T04:41:34.558Z,61.11
2023-02-08T04:44:01.258Z,61.57
2023-02-08T04:46:28.236Z,61.84
2023-02-08T04:48:55.437Z,61.81
2023-02-08T04:51:23.185Z,62.03
2023-02-08T04:53:50.053Z,61.79
2023-02-08T04:56:16.940Z,60.41
2023-02-08T04:58:43.846Z,60.65
2023-02-08T05:01:11.185Z,60.67
2023-02-08T05:03:38.085Z,60.97
2023-02-08T05:06:05.101Z,59.92
2023-02-08T05:08:32.042Z,60.76
2023-02-08T05:10:58.880Z,59.81
2023-02-08T05:13:25.760Z,60.08
2023-02-08T05:15:52.629Z,59.89
2023-02-08T05:18:19.971Z,60.13
2023-02-08T05:20:53.819Z,60.82
2023-02-08T05:23:20.586Z,59.80
2023-02-08T05:25:47.379Z,59.02
2023-02-08T05:28:14.343Z,59.72
2023-02-08T05:30:41.395Z,60.07
2023-02-08T05:33:08.419Z,59.48
2023-02-08T05:35:35.260Z,60.06
2023-02-08T05:38:02.114Z,59.77
2023-02-08T05:40:28.910Z,58.97
2023-02-08T05:42:55.818Z,59.54
2023-02-08T05:45:22.539Z,59.72
2023-02-08T05:47:49.360Z,57.93
2023-02-08T05:50:16.298Z,58.77
2023-02-08T05:52:43.103Z,59.27
2023-02-08T05:55:09.929Z,58.46
2023-02-08T05:57:37.363Z,58.73
2023-02-08T06:00:04.776Z,58.92
2023-02-08T06:02:32.455Z,59.66
2023-02-08T06:04:59.683Z,57.10
2023-02-08T06:07:26.698Z,57.72
2023-02-08T06:09:53.485Z,58.35
2023-02-08T06:12:20.391Z,59.55
2023-02-08T06:14:47.578Z,59.59
2023-02-08T06:17:14.395Z,59.42
2023-02-08T06:19:41.178Z,59.71
2023-02-08T06:22:07.988Z,59.79
2023-02-08T06:24:34.840Z,59.48
2023-02-08T06:27:01.618Z,58.69
2023-02-08T06:29:28.581Z,57.79
2023-02-08T06:31:55.845Z,58.02
2023-02-08T06:34:22.848Z,58.47
2023-02-08T06:36:49.744Z,57.77
2023-02-08T06:39:17.359Z,58.71
2023-02-08T06:41:44.272Z,57.50
2023-02-08T06:44:11.081Z,56.47
2023-02-08T06:46:38.004Z,56.85
2023-02-08T06:49:04.699Z,57.46
2023-02-08T06:51:31.507Z,56.42
2023-02-08T06:53:58.321Z,56.74
2023-02-08T06:56:25.187Z,57.66
2023-02-08T06:58:51.958Z,56.97
2023-02-08T07:01:18.766Z,57.81
2023-02-08T07:03:45.499Z,57.21
2023-02-08T07:06:16.535Z,58.51
2023-02-08T07:08:43.969Z,59.23
2023-02-08T07:11:12.109Z,58.22
2023-02-08T07:13:39.166Z,57.79
2023-02-08T07:16:06.772Z,59.69
2023-02-08T07:18:34.050Z,59.49
2023-02-08T07:21:00.900Z,58.96
2023-02-08T07:23:28.048Z,59.32
2023-02-08T07:26:01.905Z,59.79
2023-02-08T07:28:29.321Z,59.71
2023-02-08T07:30:56.295Z,59.78
2023-02-08T07:33:23.625Z,59.77
2023-02-08T07:35:50.779Z,60.34
2023-02-08T07:38:20.651Z,58.78
2023-02-08T07:40:48.041Z,58.78
2023-02-08T07:43:14.951Z,58.38
2023-02-08T07:45:51.877Z,58.00
2023-02-08T07:48:18.741Z,57.40
2023-02-08T07:50:45.597Z,58.19
2023-02-08T07:53:12.404Z,57.22
2023-02-08T07:55:39.225Z,57.81
2023-02-08T07:58:06.440Z,57.91
2023-02-08T08:00:33.335Z,58.92
2023-02-08T08:03:00.615Z,58.10
2023-02-08T08:05:27.524Z,57.16
2023-02-08T08:07:54.367Z,58.04
2023-02-08T08:10:21.447Z,56.76
2023-02-08T08:12:48.231Z,57.04
2023-02-08T08:15:15.036Z,57.39
2023-02-08T08:17:42.387Z,58.40
2023-02-08T08:20:12.314Z,58.29
2023-02-08T08:22:39.289Z,58.85
2023-02-08T08:25:06.582Z,58.24
2023-02-08T08:27:35.206Z,56.86
2023-02-08T08:30:02.509Z,57.45
2023-02-08T08:32:29.374Z,58.32
2023-02-08T08:34:56.336Z,55.46
2023-02-08T08:37:23.247Z,55.98
2023-02-08T08:39:50.284Z,58.34
2023-02-08T08:42:17.122Z,55.54
2023-02-08T08:44:44.929Z,54.63
2023-02-08T08:47:11.939Z,54.73
2023-02-08T08:49:38.988Z,56.24
2023-02-08T08:52:08.032Z,57.59
2023-02-08T08:54:35.536Z,57.93
2023-02-08T08:57:02.997Z,58.10
2023-02-08T08:59:29.857Z,57.46
2023-02-08T09:01:57.232Z,56.24
2023-02-08T09:04:24.143Z,57.37
2023-02-08T09:06:51.692Z,56.85
2023-02-08T09:09:18.927Z,53.86
2023-02-08T09:11:45.900Z,55.04
2023-02-08T09:14:12.906Z,55.73
2023-02-08T09:16:43.583Z,53.54
2023-02-08T09:19:10.845Z,55.40
2023-02-08T09:21:37.847Z,54.16
2023-02-08T09:24:04.817Z,56.20
2023-02-08T09:26:31.786Z,55.54
2023-02-08T09:28:58.645Z,52.95
2023-02-08T09:31:26.835Z,50.82
2023-02-08T09:33:55.193Z,51.95
2023-02-08T09:36:23.516Z,53.64
2023-02-08T09:38:51.794Z,54.91
2023-02-08T09:41:18.637Z,53.13
2023-02-08T09:43:48.159Z,53.62
2023-02-08T09:46:20.109Z,55.28
2023-02-08T09:48:47.818Z,56.43
2023-02-08T09:51:33.585Z,54.62
2023-02-08T09:54:05.243Z,54.46
2023-02-08T09:56:40.463Z,53.80
2023-02-08T09:59:13.614Z,57.80
2023-02-08T10:01:40.769Z,54.00
2023-02-08T10:04:27.826Z,54.39
2023-02-08T10:06:54.827Z,54.30
2023-02-08T10:09:24.886Z,55.57
2023-02-08T10:12:11.058Z,54.34
2023-02-08T10:14:53.036Z,54.05
2023-02-08T10:17:29.190Z,53.55
2023-02-08T10:19:56.111Z,53.45
2023-02-08T10:22:23.012Z,55.44
2023-02-08T10:25:01.359Z,53.63
2023-02-08T10:27:37.728Z,54.35
2023-02-08T10:30:04.661Z,53.66
2023-02-08T10:32:40.241Z,54.81
2023-02-08T10:35:15.628Z,55.99
2023-02-08T10:37:49.383Z,57.15
2023-02-08T10:40:22.548Z,56.78
2023-02-08T10:43:00.937Z,55.59
2023-02-08T10:45:39.393Z,53.79
2023-02-08T10:48:12.224Z,56.84
2023-02-08T10:50:41.119Z,54.87
2023-02-08T10:53:13.374Z,51.50
2023-02-08T10:55:44.710Z,51.36
2023-02-08T10:58:22.577Z,55.22
2023-02-08T11:00:50.296Z,53.12
2023-02-08T11:03:24.568Z,55.11
2023-02-08T11:05:54.922Z,56.74
2023-02-08T11:08:29.162Z,56.28
2023-02-08T11:11:09.131Z,55.05
2023-02-08T11:13:43.108Z,56.36
2023-02-08T11:16:14.415Z,56.63
2023-02-08T11:18:47.653Z,53.32
2023-02-08T11:21:26.535Z,52.31
2023-02-08T11:23:54.800Z,54.23
2023-02-08T11:26:46.114Z,51.64
2023-02-08T11:29:16.234Z,51.82
2023-02-08T11:31:56.524Z,53.59
2023-02-08T11:34:32.129Z,49.53
2023-02-08T11:37:09.929Z,52.47
2023-02-08T11:39:48.275Z,52.40
2023-02-08T11:42:28.090Z,53.66
2023-02-08T11:44:57.771Z,52.73
2023-02-08T11:47:26.004Z,53.96
2023-02-08T11:49:54.458Z,54.08
2023-02-08T11:52:28.870Z,54.37
2023-02-08T11:55:11.661Z,51.15
2023-02-08T11:57:51.279Z,52.54
2023-02-08T12:00:21.015Z,49.55
2023-02-08T12:02:50.488Z,50.28
2023-02-08T12:05:19.225Z,50.54
2023-02-08T12:07:45.956Z,50.72
2023-02-08T12:10:26.674Z,49.70
2023-02-08T12:13:12.363Z,49.82
2023-02-08T12:15:58.875Z,49.62
2023-02-08T12:18:25.842Z,50.56
2023-02-08T12:21:03.106Z,50.82
2023-02-08T12:23:41.950Z,47.69
2023-02-08T12:26:08.763Z,50.46
2023-02-08T12:28:50.965Z,49.70
2023-02-08T12:31:23.832Z,46.64
2023-02-08T12:33:59.980Z,45.39
2023-02-08T12:36:32.274Z,47.30
2023-02-08T12:39:36.328Z,47.08
2023-02-08T12:42:23.323Z,48.11
2023-02-08T12:45:09.982Z,51.03
2023-02-08T12:48:03.738Z,49.25
2023-02-08T12:50:37.382Z,49.52
2023-02-08T12:53:09.926Z,49.51
2023-02-08T12:55:38.843Z,47.96
2023-02-08T12:58:24.523Z,46.24
2023-02-08T13:00:52.601Z,46.71
2023-02-08T13:03:19.373Z,44.83
2023-02-08T13:06:01.363Z,44.45
2023-02-08T13:08:31.951Z,44.12
2023-02-08T13:11:14.043Z,43.61
2023-02-08T13:13:49.375Z,47.03
2023-02-08T13:16:22.021Z,45.94
2023-02-08T13:18:53.670Z,46.76
2023-02-08T13:21:23.112Z,46.75
2023-02-08T13:23:53.051Z,47.66
2023-02-08T13:26:28.128Z,47.50
2023-02-08T13:28:56.299Z,44.99
2023-02-08T13:31:25.566Z,43.40
2023-02-08T13:34:08.308Z,44.76
2023-02-08T13:36:37.059Z,44.57
2023-02-08T13:39:05.605Z,45.62
2023-02-08T13:41:33.683Z,45.10
2023-02-08T13:44:03.105Z,45.55
2023-02-08T13:46:37.115Z,43.87
2023-02-08T13:49:03.976Z,43.94
2023-02-08T13:51:34.299Z,45.14
2023-02-08T13:54:01.119Z,44.71
2023-02-08T13:56:44.675Z,45.21
2023-02-08T13:59:30.229Z,45.43
2023-02-08T14:02:12.410Z,44.29
2023-02-08T14:04:40.211Z,44.18
2023-02-08T14:07:10.066Z,46.44
2023-02-08T14:09:39.714Z,46.27
2023-02-08T14:12:13.169Z,46.05
2023-02-08T14:14:40.148Z,45.08
2023-02-08T14:17:19.342Z,43.80
2023-02-08T14:19:56.156Z,44.13
2023-02-08T14:22:23.321Z,43.81
2023-02-08T14:25:00.739Z,44.01
2023-02-08T14:27:37.091Z,43.57
2023-02-08T14:30:09.276Z,45.93
2023-02-08T14:32:38.384Z,47.27
2023-02-08T14:35:09.894Z,46.48
2023-02-08T14:37:37.310Z,46.34
2023-02-08T14:40:28.590Z,46.17
2023-02-08T14:43:01.540Z,46.43
2023-02-08T14:45:31.427Z,46.14
2023-02-08T14:48:08.032Z,44.97
2023-02-08T14:50:37.013Z,45.66
2023-02-08T14:53:17.339Z,45.96
2023-02-08T14:55:47.362Z,45.49
2023-02-08T14:58:24.355Z,45.71
2023-02-08T15:00:52.396Z,45.79
2023-02-08T15:03:19.577Z,45.37
2023-02-08T15:06:15.824Z,46.12
2023-02-08T15:08:42.628Z,47.46
2023-02-08T15:11:21.669Z,46.97
2023-02-08T15:13:53.003Z,46.63
2023-02-08T15:16:20.402Z,47.16
2023-02-08T15:18:49.040Z,47.23
2023-02-08T15:21:18.111Z,46.43
2023-02-08T15:23:58.129Z,45.73
2023-02-08T15:26:25.144Z,46.45
2023-02-08T15:28:52.336Z,46.20
2023-02-08T15:31:23.901Z,47.06
2023-02-08T15:33:53.059Z,46.96
2023-02-08T15:36:26.624Z,47.36
2023-02-08T15:38:54.936Z,47.46
2023-02-08T15:41:29.249Z,47.38
2023-02-08T15:44:22.326Z,48.15
2023-02-08T15:49:46.510Z,49.11
2023-02-08T15:52:17.268Z,48.84
2023-02-08T15:54:44.847Z,48.81
2023-02-08T15:57:23.529Z,49.40
2023-02-08T15:59:50.634Z,50.38
2023-02-08T16:02:19.516Z,51.15
2023-02-08T16:04:46.915Z,51.54
2023-02-08T16:07:31.911Z,51.18
2023-02-08T16:09:59.076Z,50.29
2023-02-08T16:12:27.570Z,51.06
2023-02-08T16:14:57.999Z,52.01
2023-02-08T16:17:37.111Z,51.91
2023-02-08T16:20:21.097Z,52.33
2023-02-08T16:22:58.328Z,53.20
2023-02-08T16:25:33.855Z,52.38
2023-02-08T16:28:00.800Z,51.15
2023-02-08T16:30:27.920Z,51.87
2023-02-08T16:32:54.938Z,52.54
2023-02-08T16:35:24.698Z,52.26
2023-02-08T16:37:56.284Z,53.11
2023-02-08T16:40:38.172Z,53.58
2023-02-08T16:43:17.004Z,53.63
2023-02-08T16:45:43.909Z,53.89
2023-02-08T16:48:33.469Z,53.88
2023-02-08T16:51:00.621Z,52.20
2023-02-08T16:53:41.296Z,52.15
2023-02-08T16:56:09.484Z,53.28
2023-02-08T16:58:36.524Z,53.47
2023-02-08T17:01:03.598Z,53.92
2023-02-08T17:03:30.838Z,53.37
2023-02-08T17:05:57.778Z,54.28
2023-02-08T17:08:24.783Z,54.42
2023-02-08T17:10:59.185Z,53.41
2023-02-08T17:13:28.869Z,53.03
2023-02-08T17:15:56.146Z,53.34
2023-02-08T17:18:22.993Z,52.84
2023-02-08T17:20:49.881Z,52.44
2023-02-08T17:23:16.777Z,53.53
2023-02-08T17:25:44.000Z,53.90
2023-02-08T17:28:17.251Z,53.69
2023-02-08T17:30:45.093Z,53.62
2023-02-08T17:33:18.139Z,54.06
2023-02-08T17:35:46.685Z,55.04
2023-02-08T17:38:15.654Z,54.34
2023-02-08T17:40:43.386Z,54.24
2023-02-08T17:43:11.064Z,54.50
2023-02-08T17:45:39.469Z,53.92
2023-02-08T17:48:06.907Z,53.97
2023-02-08T17:50:34.347Z,53.65
2023-02-08T17:53:01.338Z,53.85
2023-02-08T17:55:28.263Z,53.79
2023-02-08T17:57:55.153Z,54.00
2023-02-08T18:00:22.800Z,54.25
2023-02-08T18:02:51.119Z,54.85
2023-02-08T18:05:19.587Z,55.71
2023-02-08T18:07:46.533Z,55.73
2023-02-08T18:10:14.097Z,55.96
2023-02-08T18:12:41.311Z,55.76
2023-02-08T18:15:09.842Z,54.83
2023-02-08T18:17:36.819Z,54.33
2023-02-08T18:20:04.140Z,55.23
2023-02-08T18:22:30.900Z,55.72
2023-02-08T18:24:57.729Z,55.60
2023-02-08T18:27:25.302Z,56.38
2023-02-08T18:29:52.108Z,56.59
2023-02-08T18:32:20.461Z,56.41
2023-02-08T18:34:47.519Z,56.71
2023-02-08T18:37:14.299Z,56.34
2023-02-08T18:39:41.079Z,56.06
2023-02-08T18:42:08.059Z,55.81
2023-02-08T18:44:38.746Z,55.53
2023-02-08T18:47:06.828Z,55.54
2023-02-08T18:49:35.886Z,55.65
2023-02-08T18:52:02.737Z,55.93
2023-02-08T18:54:29.660Z,56.72
2023-02-08T18:56:56.405Z,56.72
2023-02-08T18:59:23.347Z,56.81
2023-02-08T19:01:50.259Z,55.97
2023-02-08T19:04:17.196Z,55.58
2023-02-08T19:06:43.996Z,56.19
2023-02-08T19:09:10.864Z,56.51
2023-02-08T19:11:38.889Z,57.08
2023-02-08T19:14:07.203Z,57.13
2023-02-08T19:16:35.000Z,57.98
2023-02-08T19:19:02.240Z,58.53
2023-02-08T19:21:29.585Z,58.62
2023-02-08T19:23:58.338Z,59.12
2023-02-08T19:26:25.992Z,58.72
2023-02-08T19:28:53.644Z,58.55
2023-02-08T19:31:22.334Z,57.89
2023-02-08T19:33:50.061Z,56.86
2023-02-08T19:36:18.811Z,56.35
2023-02-08T19:38:46.181Z,56.00
2023-02-08T19:41:15.063Z,55.61
2023-02-08T19:43:42.060Z,55.23
2023-02-08T19:46:12.830Z,55.54
2023-02-08T19:48:39.761Z,56.51
2023-02-08T19:51:07.031Z,57.09
2023-02-08T19:53:33.841Z,56.91
2023-02-08T19:56:02.239Z,57.12
2023-02-08T19:58:29.926Z,56.27
2023-02-08T20:00:56.994Z,56.49
2023-02-08T20:03:24.051Z,56.63
2023-02-08T20:05:51.588Z,56.17
2023-02-08T20:08:18.516Z,54.71
2023-02-08T20:10:46.606Z,54.81
2023-02-08T20:13:14.270Z,55.08
2023-02-08T20:15:42.834Z,55.13
2023-02-08T20:18:11.009Z,54.42
2023-02-08T20:20:38.023Z,55.02
2023-02-08T20:23:14.058Z,54.87
2023-02-08T20:25:44.649Z,55.19
2023-02-08T20:28:11.793Z,54.98
2023-02-08T20:30:40.465Z,55.69
2023-02-08T20:33:07.430Z,55.34
2023-02-08T20:35:35.855Z,55.62
2023-02-08T20:38:02.599Z,55.59
2023-02-08T20:40:29.374Z,55.38
2023-02-08T20:42:56.166Z,54.55
2023-02-08T20:45:23.010Z,54.66
2023-02-08T20:47:49.790Z,54.41
2023-02-08T20:50:19.444Z,54.68
2023-02-08T20:52:47.005Z,54.53
2023-02-08T20:55:13.870Z,54.65
2023-02-08T20:57:40.800Z,54.78
2023-02-08T21:00:07.804Z,55.00
2023-02-08T21:02:34.694Z,52.64
2023-02-08T21:05:01.698Z,52.06
2023-02-08T21:07:28.469Z,53.32
2023-02-08T21:09:55.303Z,53.01
2023-02-08T21:12:22.092Z,54.29
2023-02-08T21:14:49.780Z,54.21
2023-02-08T21:17:16.573Z,54.40
2023-02-08T21:19:43.414Z,53.31
2023-02-08T21:22:10.452Z,54.87
2023-02-08T21:24:37.380Z,54.70
2023-02-08T21:27:04.359Z,55.26
2023-02-08T21:29:32.683Z,54.89
2023-02-08T21:31:59.697Z,55.04
2023-02-08T21:34:26.739Z,54.56
2023-02-08T21:36:53.647Z,54.91
2023-02-08T21:39:20.592Z,54.61
2023-02-08T21:41:48.425Z,55.32
2023-02-08T21:44:15.465Z,55.61
2023-02-08T21:46:42.380Z,55.21
2023-02-08T21:49:28.138Z,55.38
2023-02-08T21:52:13.657Z,55.44
2023-02-08T21:54:41.845Z,55.69
2023-02-08T21:57:08.570Z,55.38
2023-02-08T21:59:37.070Z,55.75
2023-02-08T22:02:06.015Z,55.72
2023-02-08T22:04:36.453Z,56.30
2023-02-08T22:07:04.671Z,56.11
2023-02-08T22:09:31.607Z,55.71
2023-02-08T22:11:59.030Z,55.29
2023-02-08T22:14:26.213Z,54.04
2023-02-08T22:16:53.011Z,53.17
2023-02-08T22:19:19.769Z,53.22
2023-02-08T22:21:46.473Z,54.17
2023-02-08T22:24:13.375Z,54.55
2023-02-08T22:26:40.302Z,54.11
2023-02-08T22:29:07.166Z,54.75
2023-02-08T22:31:34.104Z,55.05
2023-02-08T22:34:00.881Z,55.93
2023-02-08T22:36:27.926Z,55.44
2023-02-08T22:38:54.772Z,54.42
2023-02-08T22:41:21.614Z,54.49
2023-02-08T22:43:48.625Z,55.33
2023-02-08T22:46:15.901Z,55.39
2023-02-08T22:48:42.821Z,55.91
2023-02-08T22:51:14.574Z,55.90
2023-02-08T22:53:41.474Z,56.30
2023-02-08T22:56:08.280Z,56.20
2023-02-08T22:58:35.160Z,56.82
2023-02-08T23:01:01.979Z,56.80
2023-02-08T23:03:28.832Z,57.00
2023-02-08T23:05:55.875Z,55.15
2023-02-08T23:08:22.856Z,56.42
2023-02-08T23:10:49.621Z,56.49
2023-02-08T23:13:16.748Z,55.96
2023-02-08T23:15:44.360Z,56.40
2023-02-08T23:18:11.473Z,55.57
2023-02-08T23:20:39.798Z,56.93
2023-02-08T23:23:07.171Z,56.95
2023-02-08T23:25:34.251Z,56.54
2023-02-08T23:28:01.382Z,57.21
2023-02-08T23:30:28.225Z,57.75
2023-02-08T23:32:55.266Z,58.00
2023-02-08T23:35:21.989Z,57.81
2023-02-08T23:37:48.753Z,57.99
2023-02-08T23:40:15.602Z,57.55
2023-02-08T23:42:42.426Z,58.63
2023-02-08T23:45:09.530Z,58.33
2023-02-08T23:47:37.620Z,59.31
2023-02-08T23:50:04.604Z,59.21
2023-02-08T23:52:31.508Z,59.38
2023-02-08T23:54:58.290Z,58.39
2023-02-08T23:57:25.089Z,57.52
2023-02-08T23:59:52.002Z,59.07
